Time;durP1;ratioP1;P1;durP2;ratioP2;P2;SDS_P1;SDS_P2;PMS_P1;PMS_P2;Temp;Humidity;BMP_temperature;BMP_pressure;BME280_temperature;BME280_humidity;BME280_pressure;Samples;Min_cycle;Max_cycle;Signal;HPM_P1;HPM_P2
2022/10/16 00:00:21;;;;;;;;;;;12.60;83.00;;;;;;2045064;29;20349;-90
2022/10/16 00:01:23;;;;;;;;;;;12.60;83.00;;;;;;2048899;29;19910;-89
2022/10/16 00:02:24;;;;;;;;;;;12.60;83.00;;;;;;2053080;28;20249;-91
2022/10/16 00:03:25;;;;;;;;;;;12.60;82.90;;;;;;2052116;28;19925;-92
2022/10/16 00:04:25;;;;;;;;;;;12.60;82.90;;;;;;2052766;28;19942;-90
2022/10/16 00:05:26;;;;;;;;;;;12.60;82.70;;;;;;2053242;28;19965;-89
2022/10/16 00:06:27;;;;;;;;;;;12.60;82.50;;;;;;2057315;28;19921;-89
2022/10/16 00:07:28;;;;;;;;;;;12.60;82.80;;;;;;2061231;28;19920;-92
2022/10/16 00:08:29;;;;;;;;;;;12.50;82.90;;;;;;2045075;29;19973;-90
2022/10/16 00:09:30;;;;;;;;;;;12.50;83.30;;;;;;2044895;29;19906;-91
2022/10/16 00:10:30;;;;;;;;;;;12.50;82.70;;;;;;2052040;29;19922;-88
2022/10/16 00:11:33;;;;;;;;;;;12.50;82.50;;;;;;2035783;29;19938;-88
2022/10/16 00:12:34;;;;;;;;;;;12.60;82.80;;;;;;2043921;28;19907;-91
2022/10/16 00:13:35;;;;;;;;;;;12.50;82.80;;;;;;2051765;28;20289;-91
2022/10/16 00:14:36;;;;;;;;;;;12.60;82.80;;;;;;2036928;29;19990;-90
2022/10/16 00:15:38;;;;;;;;;;;12.60;82.90;;;;;;2042234;29;19954;-90
2022/10/16 00:16:39;;;;;;;;;;;12.60;82.90;;;;;;2051676;29;19914;-89
2022/10/16 00:17:40;;;;;;;;;;;12.60;82.90;;;;;;2043881;29;19924;-91
2022/10/16 00:18:41;;;;;;;;;;;12.60;82.70;;;;;;2042992;29;19915;-89
2022/10/16 00:19:42;;;;;;;;;;;12.60;82.60;;;;;;2051419;28;19922;-88
2022/10/16 00:20:43;;;;;;;;;;;12.60;82.50;;;;;;2043902;29;19950;-91
2022/10/16 00:21:43;;;;;;;;;;;12.60;82.50;;;;;;2051375;29;19917;-92
2022/10/16 00:22:44;;;;;;;;;;;12.60;82.40;;;;;;2043540;29;20318;-91
2022/10/16 00:23:45;;;;;;;;;;;12.50;82.60;;;;;;2044375;29;19921;-90
2022/10/16 00:24:46;;;;;;;;;;;12.50;82.50;;;;;;2051715;28;19946;-91
2022/10/16 00:25:57;;;;;;;;;;;12.50;82.50;;;;;;2058756;28;21180;-90
2022/10/16 00:26:58;;;;;;;;;;;12.50;82.50;;;;;;2057510;28;19942;-90
2022/10/16 00:28:00;;;;;;;;;;;12.60;83.00;;;;;;2048277;29;19915;-89
2022/10/16 00:29:00;;;;;;;;;;;12.60;82.80;;;;;;2043403;28;20465;-88
2022/10/16 00:30:03;;;;;;;;;;;12.50;82.70;;;;;;2051712;29;19918;-91
2022/10/16 00:31:08;;;;;;;;;;;12.50;82.80;;;;;;2051449;29;19940;-90
2022/10/16 00:32:08;;;;;;;;;;;12.50;82.50;;;;;;2042424;29;20450;-90
2022/10/16 00:33:09;;;;;;;;;;;12.50;82.50;;;;;;2035692;29;19938;-91
2022/10/16 00:34:10;;;;;;;;;;;12.60;82.50;;;;;;2043644;29;19907;-89
2022/10/16 00:35:10;;;;;;;;;;;12.50;82.80;;;;;;2051574;29;20333;-89
2022/10/16 00:36:13;;;;;;;;;;;12.50;82.40;;;;;;2051392;29;19925;-88
2022/10/16 00:37:14;;;;;;;;;;;12.50;82.30;;;;;;2044002;28;20009;-92
2022/10/16 00:38:15;;;;;;;;;;;12.50;82.60;;;;;;2053489;28;20006;-89
2022/10/16 00:39:16;;;;;;;;;;;12.50;82.50;;;;;;2051714;28;19911;-92
2022/10/16 00:40:17;;;;;;;;;;;12.50;82.40;;;;;;2043520;29;19907;-91
2022/10/16 00:41:18;;;;;;;;;;;12.50;82.00;;;;;;2057284;28;19920;-89
2022/10/16 00:42:19;;;;;;;;;;;12.50;82.30;;;;;;2049066;28;20404;-89
2022/10/16 00:43:33;;;;;;;;;;;12.50;82.00;;;;;;2051256;28;19906;-89
2022/10/16 00:44:43;;;;;;;;;;;12.50;82.00;;;;;;2053085;28;19910;-91
2022/10/16 00:45:44;;;;;;;;;;;12.50;82.00;;;;;;2043859;29;20013;-91
2022/10/16 00:46:44;;;;;;;;;;;12.50;82.30;;;;;;2038305;28;20418;-91
2022/10/16 00:47:48;;;;;;;;;;;12.40;82.40;;;;;;2051413;29;19989;-91
2022/10/16 00:49:00;;;;;;;;;;;12.40;82.20;;;;;;2048677;29;19914;-89
2022/10/16 00:50:06;;;;;;;;;;;12.40;81.90;;;;;;2038471;29;20329;-89
2022/10/16 00:51:07;;;;;;;;;;;12.50;81.90;;;;;;2037388;29;19946;-90
2022/10/16 00:52:08;;;;;;;;;;;12.40;81.90;;;;;;2042730;28;19907;-92
2022/10/16 00:53:09;;;;;;;;;;;12.50;82.30;;;;;;2051514;29;19958;-88
2022/10/16 00:54:15;;;;;;;;;;;12.40;82.00;;;;;;2051642;28;20423;-89
2022/10/16 00:55:16;;;;;;;;;;;12.40;81.80;;;;;;2051815;29;19911;-89
2022/10/16 00:56:17;;;;;;;;;;;12.40;81.80;;;;;;2048052;29;19915;-91
2022/10/16 00:57:17;;;;;;;;;;;12.40;82.00;;;;;;2051801;28;19906;-89
2022/10/16 00:58:19;;;;;;;;;;;12.40;82.30;;;;;;2058792;28;20017;-91
2022/10/16 00:59:24;;;;;;;;;;;12.40;81.60;;;;;;2059364;28;19914;-89
2022/10/16 01:00:26;;;;;;;;;;;12.40;82.00;;;;;;2044566;28;19915;-91
2022/10/16 01:01:27;;;;;;;;;;;12.40;82.80;;;;;;2043699;29;19910;-91
2022/10/16 01:02:28;;;;;;;;;;;12.40;81.80;;;;;;2051375;29;19980;-89
2022/10/16 01:03:32;;;;;;;;;;;12.40;81.70;;;;;;2051177;29;19922;-89
2022/10/16 01:04:53;;;;;;;;;;;12.40;81.60;;;;;;2062186;28;20358;-88
2022/10/16 01:06:10;;;;;;;;;;;12.40;81.60;;;;;;2050411;29;19934;-91
2022/10/16 01:07:13;;;;;;;;;;;12.40;81.40;;;;;;2047974;28;19921;-90
2022/10/16 01:08:30;;;;;;;;;;;12.40;81.60;;;;;;2066163;28;19993;-90
2022/10/16 01:09:39;;;;;;;;;;;12.40;81.80;;;;;;2060346;28;19910;-91
2022/10/16 01:10:44;;;;;;;;;;;12.40;81.80;;;;;;2058230;28;19920;-90
2022/10/16 01:12:04;;;;;;;;;;;12.40;82.10;;;;;;2043785;28;19906;-90
2022/10/16 01:13:12;;;;;;;;;;;12.40;81.70;;;;;;2057237;28;20005;-92
2022/10/16 01:14:21;;;;;;;;;;;12.40;81.80;;;;;;2059383;28;19954;-88
2022/10/16 01:15:30;;;;;;;;;;;12.40;82.10;;;;;;2059341;28;19906;-92
2022/10/16 01:16:34;;;;;;;;;;;12.40;82.30;;;;;;2062515;28;19917;-90
2022/10/16 01:17:38;;;;;;;;;;;12.30;82.00;;;;;;2058958;28;19910;-89
2022/10/16 01:18:41;;;;;;;;;;;12.40;81.50;;;;;;2057273;28;20095;-91
2022/10/16 01:19:48;;;;;;;;;;;12.30;81.60;;;;;;2051370;28;19945;-92
2022/10/16 01:20:52;;;;;;;;;;;12.30;81.70;;;;;;2051533;28;19937;-93
2022/10/16 01:21:54;;;;;;;;;;;12.40;82.10;;;;;;2051097;28;19906;-91
2022/10/16 01:22:55;;;;;;;;;;;12.30;81.90;;;;;;2043636;29;20006;-89
2022/10/16 01:24:05;;;;;;;;;;;12.30;81.50;;;;;;2043366;29;19910;-89
2022/10/16 01:25:09;;;;;;;;;;;12.30;81.20;;;;;;2059543;28;19985;-91
2022/10/16 01:26:13;;;;;;;;;;;12.30;81.30;;;;;;2050791;28;19907;-90
2022/10/16 01:27:22;;;;;;;;;;;12.30;81.70;;;;;;2043765;29;19910;-89
2022/10/16 01:28:26;;;;;;;;;;;12.30;81.60;;;;;;2055220;28;19906;-91
2022/10/16 01:29:37;;;;;;;;;;;12.30;81.20;;;;;;2050630;29;19917;-90
2022/10/16 01:30:40;;;;;;;;;;;12.30;81.50;;;;;;2051582;28;19937;-92
2022/10/16 01:31:41;;;;;;;;;;;12.30;81.80;;;;;;2050826;28;19906;-89
2022/10/16 01:32:42;;;;;;;;;;;12.30;81.40;;;;;;2050884;29;20262;-91
2022/10/16 01:33:44;;;;;;;;;;;12.20;81.80;;;;;;2038646;29;19983;-89
2022/10/16 01:34:53;;;;;;;;;;;12.20;82.00;;;;;;2035471;29;19981;-90
2022/10/16 01:35:57;;;;;;;;;;;12.30;82.00;;;;;;2044415;29;19915;-90
2022/10/16 01:37:02;;;;;;;;;;;12.30;82.20;;;;;;2050119;28;19916;-88
2022/10/16 01:38:12;;;;;;;;;;;12.20;81.80;;;;;;2050803;28;20322;-90
2022/10/16 01:39:13;;;;;;;;;;;12.30;81.60;;;;;;2049943;29;19906;-89
2022/10/16 01:40:15;;;;;;;;;;;12.30;81.90;;;;;;2043304;29;20009;-91
2022/10/16 01:41:19;;;;;;;;;;;12.20;81.20;;;;;;2051353;29;19914;-89
2022/10/16 01:42:24;;;;;;;;;;;12.20;81.60;;;;;;2051259;29;19910;-91
2022/10/16 01:43:28;;;;;;;;;;;12.30;81.00;;;;;;2042726;29;20333;-91
2022/10/16 01:44:30;;;;;;;;;;;12.20;81.30;;;;;;2044186;28;19921;-92
2022/10/16 01:45:31;;;;;;;;;;;12.20;81.40;;;;;;2043393;29;20000;-89
2022/10/16 01:46:34;;;;;;;;;;;12.20;81.80;;;;;;2039345;29;19967;-91
2022/10/16 01:47:35;;;;;;;;;;;12.20;81.30;;;;;;2039069;29;19946;-89
2022/10/16 01:48:36;;;;;;;;;;;12.30;81.80;;;;;;2030058;28;20366;-92
2022/10/16 01:49:38;;;;;;;;;;;12.20;81.50;;;;;;2056496;28;20400;-91
2022/10/16 01:50:41;;;;;;;;;;;12.30;81.30;;;;;;2054804;28;19930;-89
2022/10/16 01:51:43;;;;;;;;;;;12.20;81.50;;;;;;2042559;29;20332;-90
2022/10/16 01:52:46;;;;;;;;;;;12.30;81.80;;;;;;2042698;29;19911;-90
2022/10/16 01:53:49;;;;;;;;;;;12.30;82.00;;;;;;2048263;28;19914;-89
2022/10/16 01:54:51;;;;;;;;;;;12.20;81.80;;;;;;2058916;28;19906;-89
2022/10/16 01:55:54;;;;;;;;;;;12.30;81.80;;;;;;2065836;28;19953;-90
2022/10/16 01:56:55;;;;;;;;;;;12.20;81.50;;;;;;2064862;28;19916;-90
2022/10/16 01:57:57;;;;;;;;;;;12.20;81.40;;;;;;2048480;29;19910;-91
2022/10/16 01:59:06;;;;;;;;;;;12.20;81.30;;;;;;2050444;28;19918;-91
2022/10/16 02:00:08;;;;;;;;;;;12.20;81.90;;;;;;2049872;29;19906;-89
2022/10/16 02:01:15;;;;;;;;;;;12.20;81.80;;;;;;2038003;28;19946;-89
2022/10/16 02:02:17;;;;;;;;;;;12.20;82.00;;;;;;2052394;28;19910;-89
2022/10/16 02:03:19;;;;;;;;;;;12.20;82.00;;;;;;2036894;29;19919;-90
2022/10/16 02:04:22;;;;;;;;;;;12.20;82.30;;;;;;2050850;29;19910;-92
2022/10/16 02:05:23;;;;;;;;;;;12.20;81.90;;;;;;2047426;28;19911;-90
2022/10/16 02:06:25;;;;;;;;;;;12.20;81.40;;;;;;2043087;29;19910;-89
2022/10/16 02:07:26;;;;;;;;;;;12.20;82.10;;;;;;2053168;28;19921;-91
2022/10/16 02:08:28;;;;;;;;;;;12.20;81.60;;;;;;2058847;28;19910;-90
2022/10/16 02:09:30;;;;;;;;;;;12.20;81.90;;;;;;2059125;28;19910;-90
2022/10/16 02:10:30;;;;;;;;;;;12.20;82.00;;;;;;2050712;28;19945;-90
2022/10/16 02:11:31;;;;;;;;;;;12.20;81.60;;;;;;2044352;28;19965;-89
2022/10/16 02:12:34;;;;;;;;;;;12.20;82.00;;;;;;2049529;28;19958;-89
2022/10/16 02:13:49;;;;;;;;;;;12.20;82.00;;;;;;2045144;28;19911;-89
2022/10/16 02:14:49;;;;;;;;;;;12.20;82.00;;;;;;2049673;29;20407;-91
2022/10/16 02:15:50;;;;;;;;;;;12.20;82.30;;;;;;2056631;28;19914;-91
2022/10/16 02:16:54;;;;;;;;;;;12.20;82.30;;;;;;2045954;28;20265;-89
2022/10/16 02:17:55;;;;;;;;;;;12.20;82.40;;;;;;2047696;29;19911;-90
2022/10/16 02:18:56;;;;;;;;;;;12.20;82.40;;;;;;2050145;28;20257;-89
2022/10/16 02:19:57;;;;;;;;;;;12.20;82.60;;;;;;2050642;28;19957;-89
2022/10/16 02:21:17;;;;;;;;;;;12.20;81.90;;;;;;2050707;28;19971;-89
2022/10/16 02:22:28;;;;;;;;;;;12.20;82.10;;;;;;2050523;28;19913;-92
2022/10/16 02:23:35;;;;;;;;;;;12.20;82.20;;;;;;2050889;29;19921;-91
2022/10/16 02:24:45;;;;;;;;;;;12.20;82.20;;;;;;2028975;29;19907;-90
2022/10/16 02:25:47;;;;;;;;;;;12.20;82.20;;;;;;2032848;29;19922;-91
2022/10/16 02:26:56;;;;;;;;;;;12.20;82.30;;;;;;2035184;29;19969;-91
2022/10/16 02:28:00;;;;;;;;;;;12.20;81.70;;;;;;2053003;28;20341;-91
2022/10/16 02:29:04;;;;;;;;;;;12.20;82.00;;;;;;2061048;28;19907;-90
2022/10/16 02:30:14;;;;;;;;;;;12.20;82.30;;;;;;2058872;28;19992;-90
2022/10/16 02:31:18;;;;;;;;;;;12.20;82.50;;;;;;2057682;28;19905;-92
2022/10/16 02:32:23;;;;;;;;;;;12.20;82.40;;;;;;2049706;28;19910;-89
2022/10/16 02:33:24;;;;;;;;;;;12.20;82.40;;;;;;2040981;29;19914;-91
2022/10/16 02:34:26;;;;;;;;;;;12.20;82.40;;;;;;2051167;28;19911;-91
2022/10/16 02:35:27;;;;;;;;;;;12.20;82.30;;;;;;2055941;28;19925;-90
2022/10/16 02:36:29;;;;;;;;;;;12.20;82.40;;;;;;2043007;28;19946;-91
2022/10/16 02:37:30;;;;;;;;;;;12.20;82.20;;;;;;2058501;28;19910;-90
2022/10/16 02:38:31;;;;;;;;;;;12.20;82.20;;;;;;2050066;28;19910;-90
2022/10/16 02:39:32;;;;;;;;;;;12.20;82.30;;;;;;2045553;28;19957;-89
2022/10/16 02:40:33;;;;;;;;;;;12.20;82.40;;;;;;2050857;29;19961;-91
2022/10/16 02:41:33;;;;;;;;;;;12.20;82.40;;;;;;2055484;28;19915;-91
2022/10/16 02:42:35;;;;;;;;;;;12.20;82.60;;;;;;2050696;28;20380;-92
2022/10/16 02:43:36;;;;;;;;;;;12.20;82.40;;;;;;2034997;29;20006;-90
2022/10/16 02:44:37;;;;;;;;;;;12.20;82.10;;;;;;2050715;28;19910;-90
2022/10/16 02:45:37;;;;;;;;;;;12.20;82.20;;;;;;2057827;28;20376;-90
2022/10/16 02:46:38;;;;;;;;;;;12.20;82.30;;;;;;2050983;28;20284;-89
2022/10/16 02:47:39;;;;;;;;;;;12.20;82.60;;;;;;2049760;29;19914;-90
2022/10/16 02:48:39;;;;;;;;;;;12.20;82.60;;;;;;2042700;29;19926;-89
2022/10/16 02:49:40;;;;;;;;;;;12.20;82.50;;;;;;2045966;29;19910;-90
2022/10/16 02:50:41;;;;;;;;;;;12.20;82.60;;;;;;2042638;29;20417;-89
2022/10/16 02:51:42;;;;;;;;;;;12.20;82.70;;;;;;2042052;29;19911;-92
2022/10/16 02:52:42;;;;;;;;;;;12.20;82.70;;;;;;2054285;28;19993;-89
2022/10/16 02:53:43;;;;;;;;;;;12.20;82.60;;;;;;2064217;28;19963;-90
2022/10/16 02:54:44;;;;;;;;;;;12.20;82.20;;;;;;2058684;28;19906;-90
2022/10/16 02:55:45;;;;;;;;;;;12.20;82.10;;;;;;2058542;28;20364;-91
2022/10/16 02:56:45;;;;;;;;;;;12.20;82.40;;;;;;2066580;28;19910;-91
2022/10/16 02:57:46;;;;;;;;;;;12.20;82.50;;;;;;2050612;28;20465;-91
2022/10/16 02:58:47;;;;;;;;;;;12.20;82.50;;;;;;2041892;29;19978;-89
2022/10/16 02:59:47;;;;;;;;;;;12.20;82.70;;;;;;2050311;28;19920;-90
2022/10/16 03:00:48;;;;;;;;;;;12.20;82.20;;;;;;2058315;28;20021;-92
2022/10/16 03:01:49;;;;;;;;;;;12.10;82.20;;;;;;2043662;29;20011;-90
2022/10/16 03:02:49;;;;;;;;;;;12.20;82.70;;;;;;2042430;29;19915;-92
2022/10/16 03:03:50;;;;;;;;;;;12.20;82.70;;;;;;2042642;28;19954;-89
2022/10/16 03:04:51;;;;;;;;;;;12.10;82.60;;;;;;2042666;29;19937;-92
2022/10/16 03:05:52;;;;;;;;;;;12.10;82.60;;;;;;2048893;29;19911;-91
2022/10/16 03:06:53;;;;;;;;;;;12.20;82.60;;;;;;2053268;28;20297;-91
2022/10/16 03:07:53;;;;;;;;;;;12.20;82.50;;;;;;2042742;29;19907;-91
2022/10/16 03:08:54;;;;;;;;;;;12.20;82.50;;;;;;2046510;29;19922;-90
2022/10/16 03:09:55;;;;;;;;;;;12.10;82.60;;;;;;2042698;28;19911;-89
2022/10/16 03:10:56;;;;;;;;;;;12.10;82.70;;;;;;2050693;28;19906;-93
2022/10/16 03:11:57;;;;;;;;;;;12.10;82.20;;;;;;2065851;28;19917;-91
2022/10/16 03:12:57;;;;;;;;;;;12.10;82.50;;;;;;2066531;28;19905;-89
2022/10/16 03:13:58;;;;;;;;;;;12.10;82.50;;;;;;2050705;28;19921;-89
2022/10/16 03:14:59;;;;;;;;;;;12.10;82.60;;;;;;2050283;29;19910;-91
2022/10/16 03:16:00;;;;;;;;;;;12.10;82.60;;;;;;2050432;28;19984;-90
2022/10/16 03:17:00;;;;;;;;;;;12.10;82.70;;;;;;2047240;29;19910;-91
2022/10/16 03:18:01;;;;;;;;;;;12.10;83.00;;;;;;2050503;29;19918;-89
2022/10/16 03:19:02;;;;;;;;;;;12.10;83.00;;;;;;2055395;28;19910;-89
2022/10/16 03:20:03;;;;;;;;;;;12.10;82.60;;;;;;2052271;28;20020;-90
2022/10/16 03:21:04;;;;;;;;;;;12.10;82.60;;;;;;2041904;29;19910;-91
2022/10/16 03:22:04;;;;;;;;;;;12.10;82.00;;;;;;2042761;29;19907;-91
2022/10/16 03:23:06;;;;;;;;;;;12.10;82.30;;;;;;2042546;29;20349;-92
2022/10/16 03:24:07;;;;;;;;;;;12.10;82.50;;;;;;2041814;29;20013;-92
2022/10/16 03:25:08;;;;;;;;;;;12.10;82.70;;;;;;2049769;28;19906;-91
2022/10/16 03:26:08;;;;;;;;;;;12.10;82.70;;;;;;2050774;29;19911;-91
2022/10/16 03:27:09;;;;;;;;;;;12.10;82.90;;;;;;2050585;29;19933;-89
2022/10/16 03:28:10;;;;;;;;;;;12.10;82.40;;;;;;2050594;28;19949;-91
2022/10/16 03:29:10;;;;;;;;;;;12.10;82.70;;;;;;2058446;28;19941;-91
2022/10/16 03:30:12;;;;;;;;;;;12.10;82.80;;;;;;2058608;28;19910;-89
2022/10/16 03:31:12;;;;;;;;;;;12.10;82.90;;;;;;2058665;28;19910;-91
2022/10/16 03:32:13;;;;;;;;;;;12.10;82.80;;;;;;2049466;28;19913;-88
2022/10/16 03:33:14;;;;;;;;;;;12.10;82.70;;;;;;2050542;29;19949;-90
2022/10/16 03:34:14;;;;;;;;;;;12.10;82.70;;;;;;2050398;29;19914;-89
2022/10/16 03:35:15;;;;;;;;;;;12.10;82.70;;;;;;2050272;29;19961;-90
2022/10/16 03:36:16;;;;;;;;;;;12.10;82.60;;;;;;2047618;28;19961;-92
2022/10/16 03:37:17;;;;;;;;;;;12.10;82.80;;;;;;2041521;29;19915;-91
2022/10/16 03:38:17;;;;;;;;;;;12.10;83.00;;;;;;2034073;29;19911;-91
2022/10/16 03:39:18;;;;;;;;;;;12.10;82.80;;;;;;2043113;29;19999;-90
2022/10/16 03:40:19;;;;;;;;;;;12.10;82.70;;;;;;2050149;28;19910;-89
2022/10/16 03:41:20;;;;;;;;;;;12.10;82.80;;;;;;2050507;29;19929;-89
2022/10/16 03:42:20;;;;;;;;;;;12.10;83.00;;;;;;2050448;28;20421;-92
2022/10/16 03:43:21;;;;;;;;;;;12.10;83.20;;;;;;2050500;29;19914;-91
2022/10/16 03:44:22;;;;;;;;;;;12.10;83.20;;;;;;2050447;28;20355;-90
2022/10/16 03:45:23;;;;;;;;;;;12.10;83.00;;;;;;2035352;29;19998;-89
2022/10/16 03:46:23;;;;;;;;;;;12.10;83.30;;;;;;2044456;29;19950;-91
2022/10/16 03:47:24;;;;;;;;;;;12.10;83.50;;;;;;2053748;28;19906;-92
2022/10/16 03:48:25;;;;;;;;;;;12.10;83.60;;;;;;2068135;28;19906;-92
2022/10/16 03:49:26;;;;;;;;;;;12.10;83.70;;;;;;2064532;28;20292;-92
2022/10/16 03:50:26;;;;;;;;;;;12.10;83.60;;;;;;2036384;29;19942;-91
2022/10/16 03:51:27;;;;;;;;;;;12.10;83.60;;;;;;2051976;28;19918;-90
2022/10/16 03:52:28;;;;;;;;;;;12.10;83.60;;;;;;2064585;28;20001;-92
2022/10/16 03:53:28;;;;;;;;;;;12.10;83.70;;;;;;2059971;28;19996;-92
2022/10/16 03:54:29;;;;;;;;;;;12.10;84.00;;;;;;2051825;29;20013;-90
2022/10/16 03:55:30;;;;;;;;;;;12.10;84.30;;;;;;2043784;29;19911;-91
2022/10/16 03:56:30;;;;;;;;;;;12.10;84.30;;;;;;2051796;28;19924;-89
2022/10/16 03:57:31;;;;;;;;;;;12.10;84.00;;;;;;2043584;29;19922;-89
2022/10/16 03:58:32;;;;;;;;;;;12.10;84.20;;;;;;2043220;29;19942;-91
2022/10/16 03:59:33;;;;;;;;;;;12.10;84.10;;;;;;2046870;29;19951;-92
2022/10/16 04:00:34;;;;;;;;;;;12.10;84.10;;;;;;2059778;28;19906;-90
2022/10/16 04:01:35;;;;;;;;;;;12.10;84.10;;;;;;2063630;28;19971;-89
2022/10/16 04:02:35;;;;;;;;;;;12.10;84.10;;;;;;2067297;28;19905;-90
2022/10/16 04:03:36;;;;;;;;;;;12.10;84.20;;;;;;2067642;28;20382;-90
2022/10/16 04:04:37;;;;;;;;;;;12.10;84.20;;;;;;2059662;28;19910;-89
2022/10/16 04:05:38;;;;;;;;;;;12.10;84.40;;;;;;2059086;28;19952;-90
2022/10/16 04:06:39;;;;;;;;;;;12.10;84.20;;;;;;2051762;29;20341;-91
2022/10/16 04:07:40;;;;;;;;;;;12.10;84.30;;;;;;2037531;29;19958;-90
2022/10/16 04:08:42;;;;;;;;;;;12.10;84.40;;;;;;2049966;29;19977;-90
2022/10/16 04:09:43;;;;;;;;;;;12.10;84.20;;;;;;2036055;29;20290;-89
2022/10/16 04:10:44;;;;;;;;;;;12.10;84.40;;;;;;2042386;29;19930;-92
2022/10/16 04:11:44;;;;;;;;;;;12.10;84.60;;;;;;2047728;29;19911;-90
2022/10/16 04:12:45;;;;;;;;;;;12.10;84.40;;;;;;2042940;29;19965;-90
2022/10/16 04:13:46;;;;;;;;;;;12.10;84.40;;;;;;2036190;29;19963;-91
2022/10/16 04:14:46;;;;;;;;;;;12.10;84.40;;;;;;2037344;29;19930;-89
2022/10/16 04:15:47;;;;;;;;;;;12.10;84.40;;;;;;2059757;28;19992;-90
2022/10/16 04:16:48;;;;;;;;;;;12.10;84.60;;;;;;2059624;28;19913;-91
2022/10/16 04:17:49;;;;;;;;;;;12.10;84.50;;;;;;2051489;29;19922;-92
2022/10/16 04:18:49;;;;;;;;;;;12.10;84.50;;;;;;2050752;29;19921;-92
2022/10/16 04:19:50;;;;;;;;;;;12.10;84.60;;;;;;2051430;29;20009;-90
2022/10/16 04:20:51;;;;;;;;;;;12.10;84.70;;;;;;2051392;28;20392;-90
2022/10/16 04:21:51;;;;;;;;;;;12.10;84.60;;;;;;2054405;28;20008;-89
2022/10/16 04:22:52;;;;;;;;;;;12.10;84.60;;;;;;2043855;29;20369;-90
2022/10/16 04:23:53;;;;;;;;;;;12.10;84.50;;;;;;2043759;29;19907;-92
2022/10/16 04:24:54;;;;;;;;;;;12.10;84.40;;;;;;2051550;29;20218;-89
2022/10/16 04:25:55;;;;;;;;;;;12.10;84.60;;;;;;2051445;29;19946;-91
2022/10/16 04:26:55;;;;;;;;;;;12.10;84.50;;;;;;2045524;29;19915;-91
2022/10/16 04:27:56;;;;;;;;;;;12.10;84.60;;;;;;2051779;29;19987;-90
2022/10/16 04:28:57;;;;;;;;;;;12.10;84.60;;;;;;2051302;28;19921;-91
2022/10/16 04:29:58;;;;;;;;;;;12.10;84.50;;;;;;2051566;29;19921;-92
2022/10/16 04:30:59;;;;;;;;;;;12.00;84.40;;;;;;2067325;28;19910;-92
2022/10/16 04:32:00;;;;;;;;;;;12.10;84.60;;;;;;2058740;28;19906;-91
2022/10/16 04:33:00;;;;;;;;;;;12.10;84.60;;;;;;2059616;28;19949;-90
2022/10/16 04:34:01;;;;;;;;;;;12.00;84.50;;;;;;2051616;28;19937;-89
2022/10/16 04:35:02;;;;;;;;;;;12.10;84.50;;;;;;2051687;28;20260;-92
2022/10/16 04:36:03;;;;;;;;;;;12.10;84.40;;;;;;2058895;28;19910;-92
2022/10/16 04:37:04;;;;;;;;;;;12.10;84.50;;;;;;2051461;29;19918;-91
2022/10/16 04:38:05;;;;;;;;;;;12.10;84.70;;;;;;2043806;29;20408;-91
2022/10/16 04:39:05;;;;;;;;;;;12.10;84.70;;;;;;2050470;29;19916;-91
2022/10/16 04:40:06;;;;;;;;;;;12.10;84.70;;;;;;2051677;29;19978;-89
2022/10/16 04:41:07;;;;;;;;;;;12.10;84.50;;;;;;2056387;28;20341;-92
2022/10/16 04:42:08;;;;;;;;;;;12.10;84.40;;;;;;2051645;28;19978;-91
2022/10/16 04:43:09;;;;;;;;;;;12.10;84.60;;;;;;2045719;29;19911;-89
2022/10/16 04:44:10;;;;;;;;;;;12.10;84.40;;;;;;2043440;29;19921;-90
2022/10/16 04:45:11;;;;;;;;;;;12.00;84.30;;;;;;2050976;29;19910;-89
2022/10/16 04:46:11;;;;;;;;;;;12.10;84.60;;;;;;2044562;29;19914;-89
2022/10/16 04:47:13;;;;;;;;;;;12.10;84.90;;;;;;2045759;29;19969;-92
2022/10/16 04:48:14;;;;;;;;;;;12.10;84.80;;;;;;2051811;28;20300;-89
2022/10/16 04:49:15;;;;;;;;;;;12.10;84.70;;;;;;2051469;29;19907;-92
2022/10/16 04:50:15;;;;;;;;;;;12.10;84.80;;;;;;2043726;29;19911;-89
2022/10/16 04:51:35;;;;;;;;;;;12.10;84.80;;;;;;2043094;29;19906;-89
2022/10/16 04:52:36;;;;;;;;;;;12.10;84.80;;;;;;2046035;29;19918;-91
2022/10/16 04:53:36;;;;;;;;;;;12.10;84.80;;;;;;2035894;29;19907;-91
2022/10/16 04:54:37;;;;;;;;;;;12.00;84.80;;;;;;2043572;29;19914;-93
2022/10/16 04:55:38;;;;;;;;;;;12.10;85.00;;;;;;2050580;28;19915;-90
2022/10/16 04:56:50;;;;;;;;;;;12.10;85.00;;;;;;2059662;28;20327;-90
2022/10/16 04:57:50;;;;;;;;;;;12.10;85.10;;;;;;2055625;28;19941;-91
2022/10/16 04:58:51;;;;;;;;;;;12.10;85.10;;;;;;2036143;29;19918;-91
2022/10/16 04:59:52;;;;;;;;;;;12.10;85.00;;;;;;2042866;29;19906;-88
2022/10/16 05:00:53;;;;;;;;;;;12.10;85.00;;;;;;2034417;29;20361;-91
2022/10/16 05:01:54;;;;;;;;;;;12.00;84.90;;;;;;2052922;28;20001;-91
2022/10/16 05:02:54;;;;;;;;;;;12.10;85.00;;;;;;2045219;28;19989;-91
2022/10/16 05:03:55;;;;;;;;;;;12.10;85.10;;;;;;2043858;29;19921;-88
2022/10/16 05:04:56;;;;;;;;;;;12.00;85.10;;;;;;2055058;28;19936;-90
2022/10/16 05:05:56;;;;;;;;;;;12.10;85.00;;;;;;2051644;29;19974;-90
2022/10/16 05:06:57;;;;;;;;;;;12.10;85.00;;;;;;2051464;28;19906;-89
2022/10/16 05:07:58;;;;;;;;;;;12.10;85.00;;;;;;2054848;28;20333;-91
2022/10/16 05:08:58;;;;;;;;;;;12.00;85.00;;;;;;2043566;29;20405;-89
2022/10/16 05:09:59;;;;;;;;;;;12.10;84.80;;;;;;2044274;29;19914;-91
2022/10/16 05:11:01;;;;;;;;;;;12.10;85.00;;;;;;2067537;28;19906;-92
2022/10/16 05:12:03;;;;;;;;;;;12.00;85.00;;;;;;2050507;28;19989;-91
2022/10/16 05:13:04;;;;;;;;;;;12.10;85.20;;;;;;2051656;28;20245;-90
2022/10/16 05:14:04;;;;;;;;;;;12.10;85.20;;;;;;2051919;28;19907;-92
2022/10/16 05:15:05;;;;;;;;;;;12.00;85.10;;;;;;2063830;28;19921;-90
2022/10/16 05:16:06;;;;;;;;;;;12.10;85.80;;;;;;2051386;29;19910;-91
2022/10/16 05:17:07;;;;;;;;;;;12.10;85.00;;;;;;2043541;28;19918;-91
2022/10/16 05:18:08;;;;;;;;;;;12.00;85.00;;;;;;2051363;29;19910;-89
2022/10/16 05:19:09;;;;;;;;;;;12.10;85.00;;;;;;2037651;29;20269;-91
2022/10/16 05:20:10;;;;;;;;;;;12.00;84.90;;;;;;2038387;29;20003;-89
2022/10/16 05:21:11;;;;;;;;;;;12.10;85.10;;;;;;2043287;29;19921;-90
2022/10/16 05:22:12;;;;;;;;;;;12.00;84.90;;;;;;2054194;28;19917;-91
2022/10/16 05:23:12;;;;;;;;;;;12.10;85.10;;;;;;2051075;29;19907;-93
2022/10/16 05:24:13;;;;;;;;;;;12.00;85.10;;;;;;2051603;28;19945;-92
2022/10/16 05:25:14;;;;;;;;;;;12.00;85.10;;;;;;2037341;29;19915;-90
2022/10/16 05:26:15;;;;;;;;;;;12.00;85.10;;;;;;2042061;28;19918;-90
2022/10/16 05:27:18;;;;;;;;;;;12.00;85.10;;;;;;2042898;29;19938;-89
2022/10/16 05:28:19;;;;;;;;;;;12.00;85.10;;;;;;2036327;28;19925;-90
2022/10/16 05:29:20;;;;;;;;;;;12.00;85.10;;;;;;2048204;29;19906;-90
2022/10/16 05:30:21;;;;;;;;;;;12.00;85.10;;;;;;2046084;28;19929;-89
2022/10/16 05:31:22;;;;;;;;;;;12.00;85.10;;;;;;2051259;28;19910;-92
2022/10/16 05:32:23;;;;;;;;;;;12.00;85.10;;;;;;2042345;29;19911;-91
2022/10/16 05:33:24;;;;;;;;;;;12.00;85.10;;;;;;2051333;28;20242;-91
2022/10/16 05:34:25;;;;;;;;;;;12.00;85.10;;;;;;2044830;28;19982;-89
2022/10/16 05:35:26;;;;;;;;;;;12.00;84.90;;;;;;2048539;29;19911;-90
2022/10/16 05:36:26;;;;;;;;;;;12.10;85.20;;;;;;2044440;29;19914;-90
2022/10/16 05:37:27;;;;;;;;;;;12.00;85.10;;;;;;2046083;28;19922;-91
2022/10/16 05:38:28;;;;;;;;;;;12.00;85.20;;;;;;2042768;29;20297;-91
2022/10/16 05:39:29;;;;;;;;;;;12.10;85.30;;;;;;2051039;28;19915;-92
2022/10/16 05:40:29;;;;;;;;;;;12.00;85.20;;;;;;2050148;29;19946;-90
2022/10/16 05:41:31;;;;;;;;;;;12.00;85.20;;;;;;2035580;29;19911;-92
2022/10/16 05:42:31;;;;;;;;;;;12.00;85.10;;;;;;2051395;28;20008;-89
2022/10/16 05:43:32;;;;;;;;;;;12.00;85.00;;;;;;2059163;28;19906;-90
2022/10/16 05:44:33;;;;;;;;;;;12.00;85.20;;;;;;2051244;28;19936;-90
2022/10/16 05:45:34;;;;;;;;;;;12.00;85.00;;;;;;2040498;29;19935;-92
2022/10/16 05:46:34;;;;;;;;;;;12.00;85.00;;;;;;2038967;29;19907;-89
2022/10/16 05:47:35;;;;;;;;;;;12.00;85.10;;;;;;2050760;28;20297;-89
2022/10/16 05:48:36;;;;;;;;;;;12.00;85.20;;;;;;2035593;29;19918;-90
2022/10/16 05:49:36;;;;;;;;;;;12.00;85.40;;;;;;2030605;29;20350;-89
2022/10/16 05:50:38;;;;;;;;;;;12.00;85.30;;;;;;2044871;29;19921;-92
2022/10/16 05:51:39;;;;;;;;;;;12.00;85.40;;;;;;2035279;29;19915;-92
2022/10/16 05:52:40;;;;;;;;;;;12.00;85.40;;;;;;2043278;29;19907;-90
2022/10/16 05:53:41;;;;;;;;;;;12.00;85.40;;;;;;2038051;29;19918;-91
2022/10/16 05:54:42;;;;;;;;;;;12.00;85.30;;;;;;2043182;29;19921;-91
2022/10/16 05:55:42;;;;;;;;;;;12.00;85.40;;;;;;2042946;29;20258;-90
2022/10/16 05:56:43;;;;;;;;;;;12.00;85.10;;;;;;2043275;29;19956;-91
2022/10/16 05:57:44;;;;;;;;;;;12.00;85.20;;;;;;2054739;28;19921;-92
2022/10/16 05:58:44;;;;;;;;;;;12.00;85.20;;;;;;2058558;28;19906;-89
2022/10/16 05:59:45;;;;;;;;;;;12.00;85.20;;;;;;2065681;28;19937;-92
2022/10/16 06:00:56;;;;;;;;;;;12.00;85.80;;;;;;2059079;28;19910;-90